Time;durP1;ratioP1;P1;durP2;ratioP2;P2;SDS_P1;SDS_P2;PMS_P1;PMS_P2;Temp;Humidity;BMP_temperature;BMP_pressure;BME280_temperature;BME280_humidity;BME280_pressure;Samples;Min_cycle;Max_cycle;Signal;HPM_P1;HPM_P2
2022/11/11 00:00:21;;;;;;;2.53;1.00;;;20.20;46.80;19.40;102333.00;;;;5051649;28;20116;-74
2022/11/11 00:02:48;;;;;;;1.70;0.90;;;20.20;46.80;19.40;102331.00;;;;5071272;28;20123;-74
2022/11/11 00:05:15;;;;;;;3.22;0.95;;;20.20;46.80;19.40;102326.00;;;;5054597;28;20466;-74
2022/11/11 00:07:41;;;;;;;2.35;1.10;;;20.20;46.80;19.40;102328.00;;;;5053077;28;20032;-74
2022/11/11 00:10:07;;;;;;;2.75;0.70;;;20.20;46.80;19.30;102328.00;;;;5054513;28;20043;-74
2022/11/11 00:12:33;;;;;;;4.68;1.52;;;20.20;46.80;19.30;102335.00;;;;5071023;28;20052;-75
2022/11/11 00:14:58;;;;;;;1.23;0.80;;;20.20;46.80;19.30;102336.00;;;;5053191;28;20043;-75
2022/11/11 00:25:38;;;;;;;2.55;1.00;;;20.20;46.80;19.30;102346.00;;;;5069527;28;20051;-74
2022/11/11 00:28:04;;;;;;;2.40;1.20;;;20.20;46.90;19.30;102343.00;;;;5070302;28;20366;-74
2022/11/11 00:30:30;;;;;;;3.17;1.00;;;20.20;47.50;19.30;102346.00;;;;5071111;28;20024;-75
2022/11/11 00:32:56;;;;;;;1.60;0.83;;;20.20;46.80;19.30;102351.00;;;;5070459;28;20120;-74
2022/11/11 00:38:44;;;;;;;1.92;0.82;;;20.20;46.80;19.30;102365.00;;;;5056078;28;20125;-74
2022/11/11 00:40:57;;;;;;;2.50;0.77;;;20.20;46.90;19.30;102384.00;;;;5053807;28;20043;-74
2022/11/11 00:43:23;;;;;;;1.98;1.00;;;20.20;46.80;19.30;102385.00;;;;5070381;28;20032;-74
2022/11/11 00:45:49;;;;;;;2.40;1.30;;;20.20;46.80;19.30;102387.00;;;;5052747;28;20035;-74
2022/11/11 00:50:59;;;;;;;2.08;0.90;;;20.20;46.80;19.30;102374.00;;;;5055200;28;20051;-74
2022/11/11 00:53:27;;;;;;;2.83;1.00;;;20.20;46.80;19.30;102389.00;;;;5051860;28;20040;-74
2022/11/11 00:55:54;;;;;;;2.17;0.90;;;20.10;46.80;19.30;102402.00;;;;5070951;28;20028;-74
2022/11/11 00:58:21;;;;;;;2.42;0.98;;;20.20;46.80;19.30;102410.00;;;;5057229;28;20028;-74
2022/11/11 01:00:49;;;;;;;3.08;0.95;;;20.20;46.80;19.30;102394.00;;;;5069316;28;20051;-74
2022/11/11 01:03:15;;;;;;;2.20;0.70;;;20.20;46.80;19.30;102395.00;;;;5070937;28;20029;-74
2022/11/11 01:05:41;;;;;;;5.20;1.10;;;20.20;46.80;19.30;102391.00;;;;5052241;28;20024;-74
2022/11/11 01:08:06;;;;;;;2.27;0.77;;;20.20;46.80;19.30;102398.00;;;;5070656;28;20042;-74
2022/11/11 01:10:38;;;;;;;3.40;1.00;;;20.20;46.80;19.30;102403.00;;;;5069887;28;20115;-74
2022/11/11 01:13:17;;;;;;;2.30;1.10;;;20.20;46.80;19.30;102392.00;;;;5070584;28;20078;-74
2022/11/11 01:15:49;;;;;;;2.58;1.00;;;20.20;46.80;19.30;102394.00;;;;5067963;28;20058;-74
2022/11/11 01:18:17;;;;;;;1.17;0.80;;;20.20;46.80;19.30;102399.00;;;;5067204;28;20032;-74
2022/11/11 01:20:43;;;;;;;1.38;0.80;;;20.20;46.80;19.30;102392.00;;;;5070848;28;20067;-74
2022/11/11 01:23:09;;;;;;;3.20;1.00;;;20.20;46.80;19.30;102389.00;;;;5062198;28;20032;-74
2022/11/11 01:25:35;;;;;;;4.22;0.90;;;20.20;46.80;19.30;102389.00;;;;5033071;28;20058;-74
2022/11/11 01:28:02;;;;;;;2.70;0.93;;;20.20;46.80;19.30;102392.00;;;;5035406;28;20466;-74
2022/11/11 01:30:29;;;;;;;3.35;0.75;;;20.20;46.80;19.30;102388.00;;;;5051980;28;20033;-74
2022/11/11 01:32:54;;;;;;;2.25;0.90;;;20.20;46.80;19.30;102383.00;;;;5052213;28;20037;-74
2022/11/11 01:35:20;;;;;;;3.70;1.27;;;20.20;46.80;19.30;102389.00;;;;5051114;28;20455;-74
2022/11/11 01:37:46;;;;;;;2.03;1.10;;;20.20;46.80;19.30;102396.00;;;;5071070;28;20071;-74
2022/11/11 01:40:11;;;;;;;2.63;1.00;;;20.20;46.80;19.30;102383.00;;;;5050947;28;20381;-74
2022/11/11 01:43:13;;;;;;;4.40;0.97;;;20.20;46.80;19.30;102384.00;;;;5070703;28;20438;-74
2022/11/11 01:45:47;;;;;;;3.30;1.00;;;20.20;46.70;19.30;102385.00;;;;5059209;28;20037;-74
2022/11/11 01:51:24;;;;;;;2.28;0.90;;;20.20;46.60;19.30;102385.00;;;;5053568;28;20043;-74
2022/11/11 01:53:55;;;;;;;3.95;1.33;;;20.10;46.70;19.30;102392.00;;;;5051189;28;20032;-74
2022/11/11 01:56:21;;;;;;;1.55;0.80;;;20.20;46.80;19.30;102401.00;;;;5065381;28;20032;-74
2022/11/11 01:58:47;;;;;;;2.27;1.10;;;20.10;46.70;19.30;102399.00;;;;5061411;28;20089;-74
2022/11/11 02:01:13;;;;;;;3.50;0.90;;;20.10;46.70;19.30;102400.00;;;;5073320;28;20055;-74
2022/11/11 02:03:40;;;;;;;4.17;1.10;;;20.10;46.80;19.30;102394.00;;;;5074290;28;20033;-75
2022/11/11 02:06:07;;;;;;;1.55;0.82;;;20.10;46.70;19.30;102388.00;;;;5064028;28;20040;-74
2022/11/11 02:08:35;;;;;;;2.22;0.82;;;20.10;46.70;19.30;102399.00;;;;5055360;28;20470;-74
2022/11/11 02:14:34;;;;;;;2.80;1.35;;;20.10;46.70;19.30;102388.00;;;;5056549;28;20374;-74
2022/11/11 02:16:46;;;;;;;4.15;1.17;;;20.10;46.70;19.20;102397.00;;;;5072723;28;21031;-74
2022/11/11 02:19:13;;;;;;;1.53;0.97;;;20.10;46.70;19.20;102386.00;;;;5078149;28;20040;-74
2022/11/11 02:21:45;;;;;;;2.00;0.95;;;20.10;46.70;19.20;102381.00;;;;5055699;28;20098;-74
2022/11/11 02:24:15;;;;;;;3.83;1.10;;;20.10;46.70;19.20;102377.00;;;;5057898;28;20035;-74
2022/11/11 02:26:40;;;;;;;3.17;1.00;;;20.10;46.70;19.20;102383.00;;;;5039995;28;20424;-74
2022/11/11 02:29:14;;;;;;;2.83;1.27;;;20.10;46.70;19.20;102385.00;;;;5059956;28;20035;-75
2022/11/11 02:31:40;;;;;;;1.20;0.80;;;20.10;46.60;19.20;102376.00;;;;5055601;28;20021;-74
2022/11/11 02:34:06;;;;;;;2.03;1.00;;;20.10;46.70;19.20;102366.00;;;;5054156;28;20463;-74
2022/11/11 02:36:32;;;;;;;2.80;0.90;;;20.10;46.70;19.20;102361.00;;;;5074338;28;20055;-74
2022/11/11 02:38:57;;;;;;;2.63;1.10;;;20.10;46.70;19.20;102356.00;;;;5055064;28;20406;-74
2022/11/11 02:44:07;;;;;;;2.95;1.05;;;20.10;46.60;19.20;102383.00;;;;5069775;28;20040;-74
2022/11/11 02:46:33;;;;;;;2.13;0.90;;;20.10;46.60;19.20;102374.00;;;;5073397;28;20029;-74
2022/11/11 02:48:59;;;;;;;2.17;1.30;;;20.00;46.50;19.20;102369.00;;;;5073400;28;20036;-76
2022/11/11 02:51:25;;;;;;;3.80;0.90;;;20.00;46.60;19.20;102362.00;;;;5072296;28;20067;-74
2022/11/11 02:53:50;;;;;;;1.90;1.10;;;20.00;46.60;19.20;102364.00;;;;5072175;28;20107;-74
2022/11/11 02:57:05;;;;;;;2.53;0.77;;;20.10;46.70;19.20;102360.00;;;;5073160;28;20063;-74
2022/11/11 02:59:02;;;;;;;2.53;1.10;;;20.00;46.60;19.20;102359.00;;;;5056813;28;20044;-74
2022/11/11 03:01:28;;;;;;;2.17;0.87;;;20.10;46.70;19.20;102351.00;;;;5073178;28;20355;-75
2022/11/11 03:03:53;;;;;;;1.47;0.80;;;20.00;46.60;19.20;102347.00;;;;5050130;28;20052;-74
2022/11/11 03:06:19;;;;;;;4.40;1.30;;;20.00;46.60;19.20;102360.00;;;;5071489;28;20430;-74
2022/11/11 03:08:45;;;;;;;3.43;1.00;;;20.00;46.60;19.20;102360.00;;;;5063056;28;20189;-74
2022/11/11 03:11:10;;;;;;;3.00;0.97;;;20.00;46.60;19.20;102367.00;;;;5072674;28;20064;-75
2022/11/11 03:13:36;;;;;;;2.97;1.17;;;20.00;46.60;19.20;102371.00;;;;5072979;28;20115;-74
2022/11/11 03:16:02;;;;;;;2.50;1.07;;;20.00;46.60;19.20;102366.00;;;;5072304;28;20462;-75
2022/11/11 03:18:28;;;;;;;2.07;0.97;;;20.00;46.60;19.20;102372.00;;;;5054212;28;20474;-74
2022/11/11 03:21:06;;;;;;;2.07;1.47;;;20.00;46.70;19.20;102366.00;;;;5072705;28;20056;-75
2022/11/11 03:23:32;;;;;;;2.85;1.70;;;20.00;46.70;19.10;102369.00;;;;5048215;28;20029;-74
2022/11/11 03:25:58;;;;;;;2.00;1.10;;;20.00;46.70;19.10;102367.00;;;;5072679;28;20043;-74
2022/11/11 03:28:26;;;;;;;3.90;1.20;;;20.00;46.70;19.10;102361.00;;;;5071708;28;20036;-74
2022/11/11 03:30:53;;;;;;;3.35;0.93;;;20.00;46.70;19.10;102359.00;;;;5072900;28;20405;-74
2022/11/11 03:33:18;;;;;;;2.58;1.42;;;20.00;46.70;19.10;102363.00;;;;5063913;28;20039;-74
2022/11/11 03:35:47;;;;;;;2.60;1.10;;;20.10;46.80;19.10;102365.00;;;;5053757;28;20398;-74
2022/11/11 03:38:22;;;;;;;3.65;1.17;;;20.00;46.70;19.10;102363.00;;;;5070115;28;20499;-74
2022/11/11 03:40:50;;;;;;;3.45;1.08;;;20.00;46.70;19.10;102359.00;;;;5062952;28;20059;-74
2022/11/11 03:43:17;;;;;;;3.72;1.10;;;20.00;46.60;19.10;102359.00;;;;5071704;28;20024;-74
2022/11/11 03:45:43;;;;;;;2.17;1.23;;;20.00;46.70;19.10;102358.00;;;;5054432;28;20421;-74
2022/11/11 03:48:09;;;;;;;2.93;1.43;;;20.00;47.40;19.10;102360.00;;;;5075509;28;20063;-74
2022/11/11 03:50:35;;;;;;;1.60;1.05;;;19.90;46.70;19.10;102369.00;;;;5054119;28;20035;-74
2022/11/11 03:53:00;;;;;;;2.47;1.33;;;20.00;46.70;19.10;102373.00;;;;5071766;28;20040;-74
2022/11/11 03:55:26;;;;;;;3.77;1.33;;;19.90;46.60;19.10;102367.00;;;;5072093;28;20389;-74
2022/11/11 03:57:52;;;;;;;2.85;1.10;;;20.00;46.70;19.10;102371.00;;;;5072451;28;20121;-74
2022/11/11 04:00:23;;;;;;;3.07;1.17;;;19.90;46.70;19.10;102358.00;;;;5071172;28;20032;-74
2022/11/11 04:11:09;;;;;;;3.95;1.63;;;19.90;46.50;19.00;102373.00;;;;5056621;28;20059;-74
2022/11/11 04:16:19;;;;;;;1.95;1.05;;;19.90;46.70;19.10;102384.00;;;;5056369;28;20035;-74
2022/11/11 04:21:42;;;;;;;3.40;1.40;;;19.90;46.70;19.10;102394.00;;;;5071350;28;20074;-74
2022/11/11 04:26:54;;;;;;;3.63;1.30;;;20.00;46.70;19.10;102397.00;;;;5056365;28;20040;-74
2022/11/11 04:29:29;;;;;;;3.33;1.20;;;19.90;46.70;19.10;102404.00;;;;5052547;28;20024;-74
2022/11/11 04:34:57;;;;;;;1.98;1.30;;;19.90;46.70;19.10;102403.00;;;;5054605;28;20043;-74
2022/11/11 04:37:25;;;;;;;2.25;1.30;;;19.90;46.70;19.10;102393.00;;;;5054641;28;20248;-74
2022/11/11 04:42:35;;;;;;;2.67;1.20;;;19.90;46.70;19.10;102399.00;;;;5054813;28;20118;-74
2022/11/11 04:48:08;;;;;;;2.22;1.13;;;19.90;46.70;19.10;102409.00;;;;5075674;28;20035;-75
2022/11/11 04:50:36;;;;;;;4.53;1.60;;;19.90;46.70;19.10;102408.00;;;;5053603;28;20078;-74
2022/11/11 04:53:03;;;;;;;3.30;1.30;;;19.90;46.70;19.10;102402.00;;;;5075660;28;20032;-74
2022/11/11 04:58:13;;;;;;;2.50;1.08;;;19.90;46.70;19.10;102404.00;;;;5054325;28;20390;-74
2022/11/11 05:00:39;;;;;;;2.57;1.27;;;19.90;46.70;19.10;102402.00;;;;5069371;28;20040;-74
2022/11/11 05:03:23;;;;;;;3.63;1.17;;;19.90;46.70;19.10;102406.00;;;;5069538;28;20044;-74
2022/11/11 05:08:57;;;;;;;3.45;1.80;;;19.90;46.70;19.00;102407.00;;;;5053806;28;20105;-74
2022/11/11 05:11:28;;;;;;;2.05;1.25;;;19.90;46.70;19.00;102414.00;;;;5069782;28;20021;-74
2022/11/11 05:22:28;;;;;;;2.30;1.50;;;19.90;46.70;19.00;102423.00;;;;5056306;28;20180;-74
2022/11/11 05:27:38;;;;;;;1.25;1.08;;;19.90;46.70;19.00;102426.00;;;;5069871;28;20086;-74
2022/11/11 05:30:09;;;;;;;4.40;1.50;;;19.80;46.70;19.00;102430.00;;;;5069151;28;20466;-74
2022/11/11 05:32:35;;;;;;;1.95;1.13;;;19.80;46.70;19.00;102444.00;;;;5052267;28;20082;-74
2022/11/11 05:35:01;;;;;;;2.43;1.40;;;19.90;47.50;19.00;102441.00;;;;5065302;28;20037;-74
2022/11/11 05:37:26;;;;;;;2.37;1.20;;;19.90;46.80;19.00;102448.00;;;;5070276;28;20403;-74
2022/11/11 05:39:52;;;;;;;3.03;1.80;;;19.90;46.80;19.10;102444.00;;;;5068980;28;20496;-74
2022/11/11 05:42:18;;;;;;;1.87;1.20;;;19.90;46.80;19.10;102444.00;;;;5069779;28;20480;-74
2022/11/11 05:44:44;;;;;;;2.50;1.50;;;19.90;46.80;19.10;102440.00;;;;5069010;28;20112;-74
2022/11/11 05:47:09;;;;;;;2.27;1.30;;;19.90;46.80;19.10;102440.00;;;;5052767;28;20063;-74
2022/11/11 05:49:35;;;;;;;2.93;1.30;;;19.90;46.80;19.10;102437.00;;;;5069002;28;20162;-74
2022/11/11 05:52:01;;;;;;;4.13;1.40;;;19.90;46.90;19.10;102439.00;;;;5070627;28;20032;-74
2022/11/11 05:54:27;;;;;;;1.47;1.10;;;19.90;46.80;19.10;102437.00;;;;5051406;28;20040;-75
2022/11/11 05:56:52;;;;;;;3.17;1.23;;;19.90;46.80;19.10;102427.00;;;;5052617;28;20028;-74
2022/11/11 05:59:18;;;;;;;3.23;1.63;;;19.90;46.80;19.10;102427.00;;;;5069192;28;20101;-74
2022/11/11 06:01:44;;;;;;;3.33;1.73;;;19.90;46.80;19.10;102431.00;;;;5069613;28;20422;-74
2022/11/11 06:04:10;;;;;;;2.20;1.20;;;19.90;46.80;19.10;102439.00;;;;5065400;28;20125;-74
2022/11/11 06:06:36;;;;;;;2.67;1.43;;;19.90;46.80;19.10;102441.00;;;;5069561;28;20374;-74
2022/11/11 06:09:02;;;;;;;3.78;1.45;;;19.90;46.70;19.10;102438.00;;;;5051869;28;20522;-74
2022/11/11 06:11:28;;;;;;;3.05;1.60;;;19.90;46.70;19.10;102439.00;;;;5068083;28;20432;-74
2022/11/11 06:14:13;;;;;;;3.27;1.60;;;19.90;46.70;19.10;102451.00;;;;5049534;28;20037;-74
2022/11/11 06:16:39;;;;;;;3.75;1.83;;;19.90;46.70;19.10;102443.00;;;;5068965;28;20027;-74
2022/11/11 06:19:05;;;;;;;3.47;1.70;;;19.90;46.70;19.10;102445.00;;;;5067643;28;20040;-75
2022/11/11 06:21:55;;;;;;;4.73;2.00;;;19.90;46.70;19.10;102450.00;;;;5070276;28;20056;-75
2022/11/11 06:24:17;;;;;;;1.90;1.48;;;19.90;46.70;19.10;102453.00;;;;5053240;28;20031;-74
2022/11/11 06:26:42;;;;;;;3.87;1.70;;;19.90;46.70;19.00;102461.00;;;;5068553;28;20033;-74
2022/11/11 06:29:08;;;;;;;2.43;1.63;;;19.90;46.70;19.00;102472.00;;;;5068338;28;20056;-74
2022/11/11 06:31:34;;;;;;;2.63;1.70;;;19.90;46.70;19.00;102470.00;;;;5072950;28;20070;-74
2022/11/11 06:33:59;;;;;;;4.00;1.77;;;19.90;47.40;19.00;102464.00;;;;5067677;28;20126;-74
2022/11/11 06:36:25;;;;;;;2.83;1.70;;;19.90;46.70;19.00;102466.00;;;;5067069;28;20043;-75
2022/11/11 06:38:51;;;;;;;4.87;1.80;;;19.90;46.70;19.00;102476.00;;;;5069002;28;20462;-74
2022/11/11 06:41:17;;;;;;;3.80;1.67;;;19.90;46.70;19.00;102483.00;;;;5073405;28;20111;-74
2022/11/11 06:43:43;;;;;;;3.53;1.65;;;20.00;46.80;19.00;102479.00;;;;5072325;28;20025;-74
2022/11/11 06:46:22;;;;;;;3.80;1.97;;;19.90;46.70;19.00;102472.00;;;;5051328;28;20048;-74
2022/11/11 06:48:48;;;;;;;3.28;1.63;;;19.90;46.70;19.00;102469.00;;;;5051122;28;20454;-75
2022/11/11 06:51:14;;;;;;;4.63;1.50;;;19.90;46.70;19.00;102477.00;;;;5072247;28;20043;-75
2022/11/11 06:53:40;;;;;;;3.43;1.73;;;19.90;46.80;19.00;102475.00;;;;5052024;28;20424;-75
2022/11/11 06:56:07;;;;;;;3.25;1.90;;;19.90;46.70;19.00;102475.00;;;;5069922;28;20086;-74
2022/11/11 06:58:32;;;;;;;4.50;2.05;;;19.90;46.70;19.00;102484.00;;;;5049657;28;20032;-74
2022/11/11 07:00:58;;;;;;;2.87;1.57;;;19.90;46.70;19.00;102483.00;;;;5076969;28;20082;-74
2022/11/11 07:03:24;;;;;;;2.10;1.53;;;19.90;46.70;19.00;102489.00;;;;5072604;28;20079;-74
2022/11/11 07:05:50;;;;;;;4.03;1.47;;;19.90;46.70;19.00;102500.00;;;;5072939;28;20117;-74
2022/11/11 07:08:17;;;;;;;4.07;1.80;;;19.90;46.70;19.00;102495.00;;;;5066397;28;20064;-74
2022/11/11 07:10:45;;;;;;;3.78;1.70;;;19.90;47.40;19.00;102500.00;;;;5063971;28;20574;-74
2022/11/11 07:13:11;;;;;;;3.17;1.58;;;19.90;46.70;19.00;102504.00;;;;5083424;28;20073;-74
2022/11/11 07:15:37;;;;;;;2.72;1.75;;;19.90;46.70;19.00;102505.00;;;;5071991;28;20024;-74
2022/11/11 07:18:03;;;;;;;3.50;2.03;;;19.90;46.70;19.00;102515.00;;;;5054080;28;20107;-74
2022/11/11 07:20:29;;;;;;;2.88;1.50;;;19.90;46.70;19.00;102510.00;;;;5050948;28;20043;-74
2022/11/11 07:22:55;;;;;;;2.60;1.55;;;19.90;46.70;19.00;102506.00;;;;5054824;28;20033;-74
2022/11/11 07:25:21;;;;;;;2.97;1.53;;;19.90;46.70;19.00;102518.00;;;;5054272;28;20024;-74
2022/11/11 07:27:47;;;;;;;2.42;2.10;;;19.90;46.70;19.00;102513.00;;;;5072148;28;20446;-74
2022/11/11 07:30:13;;;;;;;6.88;2.08;;;19.90;46.70;19.00;102511.00;;;;5051580;28;20039;-74
2022/11/11 07:32:50;;;;;;;2.90;1.40;;;19.90;46.70;19.00;102514.00;;;;5054654;28;20036;-74
2022/11/11 07:35:16;;;;;;;2.83;1.50;;;19.90;46.70;19.00;102515.00;;;;5071769;28;20792;-74
2022/11/11 07:37:42;;;;;;;1.55;1.20;;;19.90;46.70;19.00;102515.00;;;;5036704;28;20413;-74
2022/11/11 07:40:09;;;;;;;3.73;1.80;;;19.90;46.70;19.00;102523.00;;;;5071298;28;20063;-75
2022/11/11 07:42:38;;;;;;;2.35;1.38;;;19.90;46.70;19.00;102522.00;;;;5036127;28;20540;-75
2022/11/11 07:45:05;;;;;;;3.53;1.50;;;19.90;46.70;19.00;102523.00;;;;5052247;28;20112;-74
2022/11/11 07:47:31;;;;;;;2.78;1.60;;;19.90;46.70;19.00;102519.00;;;;5034936;28;20052;-74
2022/11/11 07:49:57;;;;;;;3.23;1.53;;;19.90;46.70;19.00;102520.00;;;;5069588;28;20036;-74
2022/11/11 07:52:22;;;;;;;4.17;1.90;;;19.90;46.70;19.00;102521.00;;;;5070500;28;20055;-74
2022/11/11 07:54:49;;;;;;;2.27;1.40;;;19.90;46.70;19.00;102524.00;;;;5050262;28;20051;-74
2022/11/11 07:57:15;;;;;;;3.03;1.50;;;19.90;46.70;19.00;102522.00;;;;5062627;28;20061;-75
2022/11/11 07:59:41;;;;;;;4.37;1.60;;;19.90;46.70;19.00;102526.00;;;;5069436;28;20517;-74
2022/11/11 08:02:12;;;;;;;3.77;2.00;;;19.90;46.70;19.00;102530.00;;;;5053755;28;20470;-74
2022/11/11 08:04:37;;;;;;;2.95;1.67;;;19.90;46.70;19.00;102539.00;;;;5048791;28;20016;-75
2022/11/11 08:07:03;;;;;;;4.87;1.70;;;19.90;46.70;19.00;102542.00;;;;5070852;28;20036;-74
2022/11/11 08:09:29;;;;;;;4.27;1.33;;;19.90;46.70;19.00;102544.00;;;;5053027;28;20027;-74
2022/11/11 08:14:39;;;;;;;3.90;1.58;;;19.90;46.70;19.00;102543.00;;;;5068862;28;20036;-75
2022/11/11 08:17:04;;;;;;;3.60;1.40;;;19.90;46.50;19.00;102539.00;;;;5071401;28;20040;-75
2022/11/11 08:19:30;;;;;;;4.83;1.90;;;19.80;46.60;18.90;102528.00;;;;5061556;28;20111;-74
2022/11/11 08:21:56;;;;;;;2.63;1.43;;;19.90;46.50;18.90;102537.00;;;;5052382;28;20103;-74
2022/11/11 08:24:22;;;;;;;3.83;1.77;;;19.80;46.60;18.90;102533.00;;;;5070718;28;20025;-74
2022/11/11 08:26:48;;;;;;;3.17;1.70;;;19.80;46.50;18.90;102536.00;;;;5069476;28;20063;-74
2022/11/11 08:29:13;;;;;;;3.75;1.70;;;19.80;46.40;18.90;102530.00;;;;5069583;28;20493;-74
2022/11/11 08:31:39;;;;;;;3.43;2.00;;;19.80;46.50;18.90;102535.00;;;;5052036;28;20067;-74
2022/11/11 08:34:05;;;;;;;3.47;1.60;;;19.80;46.30;18.90;102534.00;;;;5069728;28;20609;-74
2022/11/11 08:36:31;;;;;;;1.93;1.37;;;19.80;46.40;18.90;102533.00;;;;5039471;28;20389;-74
2022/11/11 08:38:57;;;;;;;3.13;1.87;;;19.70;46.50;18.90;102525.00;;;;5071398;28;20119;-74
2022/11/11 08:41:22;;;;;;;2.53;1.77;;;19.80;46.30;18.90;102529.00;;;;5070063;28;20156;-74
2022/11/11 08:43:52;;;;;;;4.73;2.30;;;19.80;46.50;18.90;102530.00;;;;5069533;28;20040;-74
2022/11/11 08:46:18;;;;;;;7.18;1.88;;;19.80;46.40;18.90;102522.00;;;;5052066;28;20494;-74
2022/11/11 08:48:44;;;;;;;4.13;1.70;;;19.80;46.40;18.90;102529.00;;;;5060328;28;20439;-74
2022/11/11 08:51:10;;;;;;;5.40;1.73;;;19.80;46.40;18.90;102536.00;;;;5068272;28;20127;-75
2022/11/11 08:53:36;;;;;;;2.50;1.50;;;19.80;46.40;18.90;102533.00;;;;5042055;28;20037;-74
2022/11/11 08:56:02;;;;;;;2.50;1.53;;;19.70;46.30;18.90;102543.00;;;;5067655;28;20032;-75
2022/11/11 08:58:28;;;;;;;4.90;1.80;;;19.80;46.40;18.90;102538.00;;;;5050601;28;20036;-74
2022/11/11 09:00:54;;;;;;;3.20;1.60;;;19.80;46.50;18.90;102545.00;;;;5066960;28;20093;-74
2022/11/11 09:03:20;;;;;;;2.70;1.40;;;19.80;46.50;18.90;102545.00;;;;5067539;28;20107;-74
2022/11/11 09:05:46;;;;;;;6.30;2.10;;;19.70;46.50;18.90;102540.00;;;;5051537;28;20028;-74
2022/11/11 09:08:12;;;;;;;3.65;1.83;;;19.80;46.30;18.90;102543.00;;;;5070425;28;20146;-74
2022/11/11 09:10:38;;;;;;;5.83;1.80;;;19.80;46.50;18.90;102549.00;;;;5067899;28;20024;-74
2022/11/11 09:13:03;;;;;;;3.73;1.53;;;19.80;46.40;18.90;102556.00;;;;5064969;28;20123;-74
2022/11/11 09:15:29;;;;;;;3.63;1.70;;;19.80;46.60;18.90;102557.00;;;;5069781;28;20024;-74
2022/11/11 09:17:55;;;;;;;3.10;1.20;;;19.80;46.40;18.90;102565.00;;;;5050899;28;20024;-74
2022/11/11 09:20:23;;;;;;;4.10;1.83;;;19.80;46.50;18.90;102553.00;;;;5069095;28;20441;-74
2022/11/11 09:22:49;;;;;;;3.58;1.73;;;19.80;46.50;18.90;102564.00;;;;5053004;28;20108;-74
2022/11/11 09:25:15;;;;;;;6.50;1.77;;;19.80;46.30;18.90;102560.00;;;;5069753;28;20028;-74
2022/11/11 09:27:41;;;;;;;4.10;1.80;;;19.80;46.40;18.90;102557.00;;;;5058831;28;20035;-74
2022/11/11 09:30:08;;;;;;;2.80;1.80;;;19.80;46.50;18.90;102558.00;;;;5070334;28;20063;-75
2022/11/11 09:32:33;;;;;;;;;;;19.80;46.30;18.90;102564.00;;;;5053691;28;20082;-75
2022/11/11 09:34:59;;;;;;;6.13;1.80;;;19.80;46.60;18.80;102568.00;;;;5069360;28;19913;-75
2022/11/11 09:37:26;;;;;;;4.53;1.77;;;19.80;46.20;18.80;102567.00;;;;5070550;28;20032;-75
2022/11/11 09:39:51;;;;;;;3.30;1.83;;;19.80;46.20;18.80;102573.00;;;;5051588;28;20035;-75
2022/11/11 09:42:41;;;;;;;4.67;1.80;;;19.80;46.30;18.80;102574.00;;;;5069682;28;20028;-75
2022/11/11 09:45:36;;;;;;;3.05;1.40;;;19.80;46.30;18.80;102571.00;;;;5058248;28;20060;-75
2022/11/11 09:48:43;;;;;;;3.00;1.63;;;19.80;46.30;18.80;102571.00;;;;5051947;28;20047;-74
2022/11/11 09:51:27;;;;;;;2.60;1.48;;;19.70;46.20;18.80;102575.00;;;;5045760;28;20045;-74
2022/11/11 09:53:59;;;;;;;4.40;1.65;;;19.80;47.00;18.80;102577.00;;;;5036779;28;20117;-74
2022/11/11 09:56:25;;;;;;;6.00;1.50;;;19.80;46.30;18.80;102573.00;;;;5052446;28;20435;-74
2022/11/11 09:59:10;;;;;;;3.75;1.85;;;19.70;46.30;18.80;102578.00;;;;5051409;28;20033;-74
2022/11/11 10:01:47;;;;;;;4.05;1.52;;;19.80;46.30;18.80;102586.00;;;;5031622;28;20041;-74
2022/11/11 10:04:35;;;;;;;4.60;1.63;;;19.80;46.30;18.80;102580.00;;;;5035627;28;20036;-74
2022/11/11 10:07:08;;;;;;;5.03;2.30;;;19.70;46.30;18.80;102576.00;;;;5048875;28;20082;-74
2022/11/11 10:09:41;;;;;;;4.30;1.63;;;19.70;46.20;18.80;102589.00;;;;5042816;28;20119;-75
2022/11/11 10:12:13;;;;;;;2.22;1.15;;;19.80;46.40;18.80;102588.00;;;;5055235;28;20028;-75
2022/11/11 10:14:41;;;;;;;4.50;1.58;;;19.80;46.40;18.80;102593.00;;;;5053307;28;20033;-74
2022/11/11 10:17:32;;;;;;;2.70;1.42;;;19.80;46.30;18.80;102584.00;;;;5059631;28;20032;-74
2022/11/11 10:20:29;;;;;;;3.10;1.30;;;19.80;46.30;18.80;102593.00;;;;5078495;28;20036;-75
2022/11/11 10:23:16;;;;;;;2.63;1.40;;;19.80;46.40;18.80;102594.00;;;;5053011;28;20036;-74
2022/11/11 10:26:06;;;;;;;2.38;1.42;;;19.80;46.40;18.80;102593.00;;;;5056016;28;20071;-74
2022/11/11 10:28:35;;;;;;;1.98;1.35;;;19.80;46.40;18.90;102591.00;;;;5077205;28;20599;-76
2022/11/11 10:31:01;;;;;;;2.75;1.20;;;19.80;46.40;18.90;102589.00;;;;5063750;28;20028;-74
2022/11/11 10:33:31;;;;;;;1.98;1.30;;;19.70;46.40;18.90;102588.00;;;;5056947;28;20081;-74
2022/11/11 10:35:59;;;;;;;1.42;1.00;;;19.80;46.40;18.90;102589.00;;;;5022768;28;20082;-74
2022/11/11 10:38:49;;;;;;;3.00;1.35;;;19.80;46.40;18.90;102583.00;;;;5055380;28;20024;-75
2022/11/11 10:41:26;;;;;;;2.85;1.40;;;19.80;46.40;18.90;102586.00;;;;5055155;28;20124;-74
2022/11/11 10:43:52;;;;;;;2.45;1.40;;;19.80;46.30;18.90;102594.00;;;;5055390;28;20063;-75
2022/11/11 10:46:28;;;;;;;4.55;1.83;;;19.80;46.40;18.90;102590.00;;;;5072640;28;20059;-75
2022/11/11 10:48:59;;;;;;;3.08;1.70;;;19.80;46.40;18.90;102576.00;;;;5052961;28;20036;-75
2022/11/11 10:51:27;;;;;;;5.50;1.42;;;19.80;46.40;18.90;102593.00;;;;5038530;28;20071;-74
2022/11/11 10:54:08;;;;;;;3.38;1.33;;;19.90;46.50;18.90;102589.00;;;;5076081;28;20059;-75
2022/11/11 10:56:42;;;;;;;2.67;0.98;;;19.90;46.40;18.90;102586.00;;;;5050118;28;20115;-74
2022/11/11 10:59:38;;;;;;;2.88;1.23;;;19.90;46.40;18.90;102584.00;;;;5054915;28;20400;-74
2022/11/11 11:02:18;;;;;;;3.22;1.50;;;19.80;46.40;18.90;102584.00;;;;5041706;28;20182;-75
2022/11/11 11:05:05;;;;;;;4.82;1.42;;;19.90;46.70;18.90;102581.00;;;;5053100;28;20028;-74
2022/11/11 11:07:47;;;;;;;2.33;1.33;;;19.90;46.50;18.90;102588.00;;;;5045002;28;20495;-74
2022/11/11 11:10:26;;;;;;;2.17;1.15;;;19.90;46.50;18.90;102583.00;;;;5054573;28;20028;-74
2022/11/11 11:13:30;;;;;;;2.58;1.38;;;19.90;46.50;18.90;102587.00;;;;5055138;28;20033;-75
2022/11/11 11:16:01;;;;;;;3.17;1.30;;;19.90;46.50;18.90;102581.00;;;;5059273;28;20170;-75
2022/11/11 11:18:27;;;;;;;3.40;1.33;;;19.90;46.50;18.90;102582.00;;;;5051499;28;20103;-74
2022/11/11 11:20:58;;;;;;;3.30;1.30;;;19.90;46.50;19.00;102576.00;;;;5072266;28;20093;-75
2022/11/11 11:23:44;;;;;;;5.03;1.20;;;19.90;46.60;19.00;102584.00;;;;5064407;28;20060;-74
2022/11/11 11:26:12;;;;;;;3.28;1.40;;;19.90;46.40;18.90;102583.00;;;;5051262;28;20052;-74
2022/11/11 11:28:58;;;;;;;4.18;1.60;;;19.90;46.50;19.00;102580.00;;;;5046294;28;20017;-74
2022/11/11 11:31:41;;;;;;;3.15;1.15;;;19.90;46.50;19.00;102576.00;;;;5068947;28;20028;-74
2022/11/11 11:34:07;;;;;;;2.65;1.15;;;19.90;46.50;19.00;102576.00;;;;5064932;28;20056;-74
2022/11/11 11:36:33;;;;;;;3.33;1.47;;;19.90;46.60;19.00;102582.00;;;;5053699;28;20496;-74
2022/11/11 11:39:00;;;;;;;2.63;1.23;;;19.90;46.50;19.00;102574.00;;;;5071774;28;20059;-74
2022/11/11 11:41:50;;;;;;;2.75;1.40;;;19.90;46.50;19.00;102585.00;;;;5054071;28;20096;-74
2022/11/11 11:44:36;;;;;;;3.67;1.35;;;19.90;46.50;19.00;102576.00;;;;5077454;28;20034;-74
2022/11/11 11:47:36;;;;;;;2.38;1.20;;;19.90;46.50;19.00;102572.00;;;;5054598;28;20035;-74
2022/11/11 11:50:14;;;;;;;4.20;1.27;;;19.90;46.50;19.00;102576.00;;;;5055752;28;20159;-74
2022/11/11 11:53:05;;;;;;;1.90;1.10;;;19.90;46.60;19.00;102564.00;;;;5054974;28;20020;-75
2022/11/11 11:55:35;;;;;;;4.55;1.50;;;19.90;46.60;19.00;102570.00;;;;5053540;28;20611;-74
2022/11/11 11:58:26;;;;;;;2.97;1.27;;;19.90;46.60;19.00;102569.00;;;;5047062;28;20076;-74
2022/11/11 12:01:16;;;;;;;3.40;1.27;;;20.00;46.70;19.00;102569.00;;;;5049148;28;20366;-74
2022/11/11 12:04:40;;;;;;;3.72;1.27;;;20.00;46.60;19.00;102561.00;;;;5061530;28;20024;-74
2022/11/11 12:07:28;;;;;;;1.02;0.90;;;19.90;46.70;19.00;102562.00;;;;5031295;28;20067;-74